Time;durP1;ratioP1;P1;durP2;ratioP2;P2;SDS_P1;SDS_P2;PMS_P1;PMS_P2;Temp;Humidity;BMP_temperature;BMP_pressure;BME280_temperature;BME280_humidity;BME280_pressure;Samples;Min_cycle;Max_cycle;Signal;HPM_P1;HPM_P2
2023/01/01 00:01:09;;;;;;;20.85;11.77;;;16.30;63.50;;;;;;5032164;28;20083;-73
2023/01/01 00:03:35;;;;;;;19.02;12.07;;;16.30;63.30;;;;;;5032959;28;20025;-73
2023/01/01 00:06:12;;;;;;;19.15;11.45;;;16.30;63.30;;;;;;5041731;28;20040;-73
2023/01/01 00:08:39;;;;;;;21.45;13.35;;;16.30;63.20;;;;;;5032376;28;20040;-73
2023/01/01 00:11:06;;;;;;;16.52;11.15;;;16.20;63.20;;;;;;5042757;28;20100;-73
2023/01/01 00:13:33;;;;;;;18.58;10.90;;;16.30;63.20;;;;;;5067887;28;20060;-73
2023/01/01 00:16:07;;;;;;;17.00;9.50;;;16.30;63.20;;;;;;5022694;28;20017;-73
2023/01/01 00:18:33;;;;;;;16.50;8.93;;;16.30;63.20;;;;;;5048420;28;20048;-73
2023/01/01 00:21:07;;;;;;;16.25;8.50;;;16.30;63.30;;;;;;5031173;28;20171;-72
2023/01/01 00:23:34;;;;;;;18.50;8.02;;;16.30;63.10;;;;;;5046229;28;20029;-73
2023/01/01 00:26:00;;;;;;;13.45;7.57;;;16.30;63.10;;;;;;5032501;28;20028;-73
2023/01/01 00:28:26;;;;;;;15.43;7.13;;;16.30;63.00;;;;;;5043074;28;20045;-73
2023/01/01 00:30:52;;;;;;;14.25;7.18;;;16.30;63.00;;;;;;5014448;28;20466;-73
2023/01/01 00:33:18;;;;;;;16.30;7.32;;;16.30;63.00;;;;;;5006865;28;20033;-73
2023/01/01 00:35:44;;;;;;;12.82;6.75;;;16.30;62.90;;;;;;5009945;28;20025;-73
2023/01/01 00:38:09;;;;;;;14.98;5.93;;;16.30;62.90;;;;;;5034047;28;20029;-73
2023/01/01 00:40:35;;;;;;;12.98;5.70;;;16.30;63.00;;;;;;5032271;28;20026;-73
2023/01/01 00:43:01;;;;;;;11.70;5.45;;;16.30;62.90;;;;;;5037941;28;20370;-73
2023/01/01 00:45:27;;;;;;;12.98;5.20;;;16.30;63.60;;;;;;5033462;28;20514;-73
2023/01/01 00:47:53;;;;;;;10.77;5.07;;;16.30;62.90;;;;;;5033281;28;20104;-73
2023/01/01 00:50:22;;;;;;;11.35;5.03;;;16.30;63.00;;;;;;5047358;28;20442;-73
2023/01/01 00:52:48;;;;;;;13.10;4.70;;;16.30;63.20;;;;;;5036096;28;20025;-73
2023/01/01 00:55:14;;;;;;;11.25;4.35;;;16.30;63.40;;;;;;5024620;28;20436;-73
2023/01/01 00:57:40;;;;;;;10.63;4.35;;;16.20;63.60;;;;;;5035214;28;20053;-73
2023/01/01 01:00:07;;;;;;;9.18;3.95;;;16.20;63.80;;;;;;5053959;28;20025;-73
2023/01/01 01:02:35;;;;;;;9.55;4.68;;;16.20;63.90;;;;;;5039346;28;20098;-73
2023/01/01 01:05:03;;;;;;;10.40;3.97;;;16.20;63.90;;;;;;5053421;28;20067;-73
2023/01/01 01:07:37;;;;;;;10.18;4.75;;;16.20;64.10;;;;;;5034336;28;20115;-73
2023/01/01 01:10:03;;;;;;;9.82;3.85;;;16.20;64.10;;;;;;5047683;28;20106;-73
2023/01/01 01:12:33;;;;;;;11.88;3.80;;;16.20;64.20;;;;;;5017732;28;20025;-73
2023/01/01 01:14:58;;;;;;;9.43;3.42;;;16.10;64.20;;;;;;5051835;28;20388;-73
2023/01/01 01:17:24;;;;;;;11.40;3.05;;;16.20;64.30;;;;;;5048479;28;20447;-73
2023/01/01 01:19:50;;;;;;;10.38;3.08;;;16.10;64.20;;;;;;5036155;28;20110;-73
2023/01/01 01:22:15;;;;;;;10.52;3.03;;;16.10;64.30;;;;;;5048455;28;20146;-73
2023/01/01 01:24:41;;;;;;;8.90;3.20;;;16.10;64.20;;;;;;5051252;28;20083;-73
2023/01/01 01:27:07;;;;;;;10.88;3.88;;;16.20;64.10;;;;;;5038808;28;20046;-73
2023/01/01 01:29:32;;;;;;;10.20;3.35;;;16.10;63.90;;;;;;5044571;28;20119;-73
2023/01/01 01:31:58;;;;;;;7.03;2.60;;;16.10;64.00;;;;;;5044001;28;20033;-73
2023/01/01 01:34:23;;;;;;;8.18;2.50;;;16.10;64.10;;;;;;5051692;28;20415;-73
2023/01/01 01:36:51;;;;;;;10.93;2.85;;;16.10;64.00;;;;;;5054849;28;20053;-73
2023/01/01 01:39:18;;;;;;;6.97;2.42;;;16.10;64.00;;;;;;5033222;28;20468;-73
2023/01/01 01:41:44;;;;;;;7.53;2.40;;;16.10;64.00;;;;;;5036941;28;20327;-73
2023/01/01 01:44:50;;;;;;;6.95;2.50;;;16.10;63.90;;;;;;5079089;28;20102;-73
2023/01/01 01:47:36;;;;;;;7.85;2.42;;;16.10;63.80;;;;;;5036222;28;20521;-73
2023/01/01 01:50:02;;;;;;;8.02;2.88;;;16.10;63.80;;;;;;5042874;28;20032;-73
2023/01/01 01:52:29;;;;;;;6.45;2.17;;;16.10;63.80;;;;;;5028530;28;20033;-73
2023/01/01 01:54:56;;;;;;;8.55;2.25;;;16.00;63.60;;;;;;5038915;28;20029;-73
2023/01/01 01:57:23;;;;;;;10.70;2.50;;;16.00;63.60;;;;;;5050718;28;20033;-73
2023/01/01 01:59:54;;;;;;;7.38;2.42;;;16.00;63.60;;;;;;5024719;28;20021;-74
2023/01/01 02:02:48;;;;;;;7.20;2.47;;;16.10;63.60;;;;;;5026137;28;20049;-73
2023/01/01 02:05:15;;;;;;;10.73;2.33;;;16.00;63.50;;;;;;5041697;28;20033;-73
2023/01/01 02:07:41;;;;;;;8.43;2.70;;;16.10;63.60;;;;;;5056900;28;20024;-72
2023/01/01 02:10:07;;;;;;;7.78;2.22;;;16.10;63.50;;;;;;5043495;28;20545;-73
2023/01/01 02:12:33;;;;;;;9.05;2.25;;;16.10;63.40;;;;;;5046310;28;20057;-74
2023/01/01 02:14:59;;;;;;;7.15;2.05;;;16.10;63.40;;;;;;5044585;28;20025;-72
2023/01/01 02:17:38;;;;;;;7.35;2.30;;;16.00;63.20;;;;;;5020531;28;20072;-73
2023/01/01 02:20:50;;;;;;;7.88;2.20;;;16.10;63.10;;;;;;5044285;28;20096;-73
2023/01/01 02:23:28;;;;;;;;;;;16.00;63.00;;;;;;5049474;28;20490;-73
2023/01/01 02:26:19;;;;;;;9.30;2.28;;;16.00;63.30;;;;;;5042614;28;19978;-73
2023/01/01 02:29:03;;;;;;;7.68;2.20;;;16.00;63.30;;;;;;5055421;28;20056;-73
2023/01/01 02:31:37;;;;;;;8.43;2.65;;;16.00;63.40;;;;;;5045765;28;20131;-73
2023/01/01 02:34:07;;;;;;;6.05;2.33;;;16.00;63.40;;;;;;5049764;28;20117;-73
2023/01/01 02:36:38;;;;;;;6.82;2.20;;;16.00;63.40;;;;;;5043297;28;20111;-73
2023/01/01 02:39:06;;;;;;;6.65;2.17;;;16.00;63.20;;;;;;5072114;28;20024;-73
2023/01/01 02:41:45;;;;;;;8.55;2.40;;;16.00;63.20;;;;;;5053492;28;20025;-73
2023/01/01 02:44:12;;;;;;;7.07;2.38;;;16.00;63.10;;;;;;5025894;28;20465;-74
2023/01/01 02:46:38;;;;;;;5.85;2.10;;;16.00;63.10;;;;;;5036418;28;20032;-74
2023/01/01 02:49:04;;;;;;;9.93;2.00;;;16.00;62.80;;;;;;5042874;28;20417;-73
2023/01/01 02:51:48;;;;;;;5.70;2.17;;;16.00;62.70;;;;;;5041329;28;20473;-73
2023/01/01 02:54:16;;;;;;;5.82;2.00;;;16.00;62.50;;;;;;5035859;28;20052;-73
2023/01/01 02:57:01;;;;;;;6.68;2.63;;;16.00;62.50;;;;;;5057745;28;20022;-74
2023/01/01 03:03:09;;;;;;;6.68;1.90;;;16.00;62.20;;;;;;5035882;28;20056;-73
2023/01/01 03:06:22;;;;;;;7.55;1.80;;;16.00;62.20;;;;;;5046439;28;20465;-73
2023/01/01 03:09:01;;;;;;;5.82;1.85;;;16.00;62.10;;;;;;5040431;28;20049;-74
2023/01/01 03:11:51;;;;;;;7.18;2.13;;;16.00;62.00;;;;;;5042470;28;20053;-73
2023/01/01 03:14:39;;;;;;;8.10;1.88;;;16.10;61.80;;;;;;5045237;28;20029;-73
2023/01/01 03:17:25;;;;;;;6.15;2.03;;;16.00;61.70;;;;;;5042730;28;20386;-73
2023/01/01 03:19:52;;;;;;;7.75;2.22;;;16.00;61.70;;;;;;5020253;28;20041;-73
2023/01/01 03:22:21;;;;;;;7.57;1.90;;;16.00;61.80;;;;;;5044411;28;20116;-73
2023/01/01 03:25:01;;;;;;;7.78;2.10;;;16.00;61.60;;;;;;5054518;28;20350;-73
2023/01/01 03:27:33;;;;;;;6.78;2.03;;;16.00;61.40;;;;;;5053786;28;20064;-73
2023/01/01 03:30:07;;;;;;;6.65;2.05;;;16.00;61.40;;;;;;5054634;28;20357;-73
2023/01/01 03:33:02;;;;;;;5.00;1.75;;;16.00;61.40;;;;;;5043655;28;20408;-73
2023/01/01 03:35:56;;;;;;;8.48;2.28;;;16.00;61.30;;;;;;5051452;28;20040;-73
2023/01/01 03:38:36;;;;;;;7.55;1.80;;;16.00;61.30;;;;;;5038994;28;20045;-74
2023/01/01 03:41:33;;;;;;;6.53;1.92;;;16.00;61.30;;;;;;5023967;28;20052;-73
2023/01/01 03:44:14;;;;;;;7.03;1.75;;;16.00;61.20;;;;;;5025870;28;20041;-73
2023/01/01 03:46:40;;;;;;;6.72;1.80;;;16.00;61.30;;;;;;5048130;28;20034;-73
2023/01/01 03:49:09;;;;;;;6.28;1.60;;;16.00;61.40;;;;;;5075973;28;20466;-73
2023/01/01 03:51:44;;;;;;;7.90;1.88;;;16.00;61.30;;;;;;5043662;28;20493;-73
2023/01/01 03:54:41;;;;;;;7.32;1.95;;;15.90;61.30;;;;;;5050187;28;20099;-73
2023/01/01 03:57:31;;;;;;;5.53;2.30;;;16.00;61.20;;;;;;5044885;28;20108;-73
2023/01/01 04:00:06;;;;;;;6.40;1.70;;;15.90;61.10;;;;;;5046739;28;20440;-73
2023/01/01 04:02:53;;;;;;;4.05;1.63;;;15.90;61.20;;;;;;5038131;28;20094;-73
2023/01/01 04:05:23;;;;;;;6.63;2.05;;;15.90;61.10;;;;;;5041964;28;20119;-73
2023/01/01 04:07:51;;;;;;;6.10;2.05;;;15.90;61.90;;;;;;5041723;28;20347;-73
2023/01/01 04:10:17;;;;;;;7.18;1.75;;;15.90;61.20;;;;;;5046371;28;20490;-73
2023/01/01 04:12:55;;;;;;;5.57;1.60;;;15.90;61.10;;;;;;5043791;28;20382;-73
2023/01/01 04:15:23;;;;;;;6.10;2.03;;;15.90;61.10;;;;;;5047384;28;20021;-73
2023/01/01 04:17:49;;;;;;;6.53;1.80;;;15.90;61.10;;;;;;5022505;28;20025;-73
2023/01/01 04:20:16;;;;;;;6.43;1.98;;;15.90;61.20;;;;;;5047828;28;20151;-73
2023/01/01 04:22:42;;;;;;;5.45;1.67;;;15.90;61.20;;;;;;5026292;28;20033;-73
2023/01/01 04:25:10;;;;;;;6.97;1.85;;;15.90;61.20;;;;;;5053981;28;20036;-73
2023/01/01 04:27:36;;;;;;;5.97;1.83;;;15.90;61.20;;;;;;5043531;28;20041;-73
2023/01/01 04:30:04;;;;;;;8.30;2.15;;;15.90;61.10;;;;;;5046961;28;20030;-73
2023/01/01 04:32:29;;;;;;;6.80;2.17;;;15.90;61.20;;;;;;5046784;28;20036;-74
2023/01/01 04:34:55;;;;;;;5.38;2.00;;;15.90;61.20;;;;;;5034876;28;20017;-73
2023/01/01 04:37:21;;;;;;;8.07;2.50;;;15.90;61.30;;;;;;5028903;28;20028;-73
2023/01/01 04:39:47;;;;;;;5.70;1.70;;;15.80;61.30;;;;;;5046347;28;20476;-73
2023/01/01 04:42:12;;;;;;;6.70;2.10;;;15.80;61.30;;;;;;5037166;28;20094;-73
2023/01/01 04:44:38;;;;;;;7.55;2.15;;;15.80;61.30;;;;;;5033654;28;20036;-73
2023/01/01 04:47:04;;;;;;;4.93;1.40;;;15.80;61.50;;;;;;5053444;28;20063;-73
2023/01/01 04:49:30;;;;;;;6.82;1.70;;;15.80;61.60;;;;;;5046873;28;20025;-73
2023/01/01 04:51:56;;;;;;;4.68;1.40;;;15.80;61.70;;;;;;5045529;28;20107;-72
2023/01/01 04:54:22;;;;;;;7.57;1.90;;;15.80;61.70;;;;;;5043133;28;20029;-73
2023/01/01 04:56:48;;;;;;;5.38;1.65;;;15.80;61.80;;;;;;5050082;28;20380;-73
2023/01/01 04:59:14;;;;;;;7.38;2.00;;;15.80;61.80;;;;;;5045664;28;20038;-73
2023/01/01 05:01:40;;;;;;;5.85;1.90;;;15.80;61.90;;;;;;5021824;28;20099;-73
2023/01/01 05:04:10;;;;;;;6.25;1.80;;;15.90;62.70;;;;;;5031200;28;20029;-73
2023/01/01 05:06:36;;;;;;;5.97;1.88;;;15.90;62.10;;;;;;5049755;28;20033;-73
2023/01/01 05:09:03;;;;;;;5.72;1.92;;;15.90;62.10;;;;;;5027427;28;20025;-72
2023/01/01 05:11:29;;;;;;;6.55;1.63;;;15.80;62.20;;;;;;5062038;28;20040;-72
2023/01/01 05:13:58;;;;;;;7.32;2.17;;;15.90;62.30;;;;;;5039349;28;20445;-73
2023/01/01 05:16:27;;;;;;;8.35;2.10;;;15.90;62.30;;;;;;5044250;28;20032;-72
2023/01/01 05:18:53;;;;;;;7.55;2.00;;;15.80;62.30;;;;;;5056794;28;20479;-72
2023/01/01 05:21:24;;;;;;;7.10;1.73;;;15.80;62.40;;;;;;5048624;28;20045;-72
2023/01/01 05:24:04;;;;;;;6.47;1.92;;;15.80;62.50;;;;;;5057585;28;20032;-72
2023/01/01 05:26:32;;;;;;;5.32;1.55;;;15.80;62.50;;;;;;5044320;28;20507;-73
2023/01/01 05:28:59;;;;;;;6.07;1.70;;;15.80;62.60;;;;;;5026693;28;20033;-72
2023/01/01 05:31:32;;;;;;;8.68;1.83;;;15.80;62.70;;;;;;5049084;28;20086;-73
2023/01/01 05:33:57;;;;;;;8.30;2.15;;;15.80;62.80;;;;;;5031422;28;20033;-72
2023/01/01 05:36:29;;;;;;;8.27;1.90;;;15.80;62.90;;;;;;5041746;28;20171;-72
2023/01/01 05:38:56;;;;;;;3.47;1.35;;;15.80;63.10;;;;;;5031268;28;20104;-72
2023/01/01 05:41:22;;;;;;;6.28;1.75;;;15.80;63.20;;;;;;5037634;28;20040;-72
2023/01/01 05:43:48;;;;;;;7.05;1.95;;;15.70;63.20;;;;;;5054101;28;20028;-72
2023/01/01 05:46:18;;;;;;;4.22;1.27;;;15.70;63.30;;;;;;5053191;28;20057;-72
2023/01/01 05:48:45;;;;;;;5.28;1.60;;;15.70;62.90;;;;;;5050843;28;20029;-72
2023/01/01 05:51:25;;;;;;;4.90;1.50;;;15.70;62.70;;;;;;5053358;28;20456;-73
2023/01/01 05:53:52;;;;;;;5.25;1.65;;;15.70;62.30;;;;;;5056048;28;20021;-72
2023/01/01 05:56:18;;;;;;;5.95;1.60;;;15.70;62.20;;;;;;5046607;28;20032;-73
2023/01/01 05:58:45;;;;;;;5.50;1.50;;;15.70;62.20;;;;;;5036201;28;20028;-73
2023/01/01 06:01:16;;;;;;;4.03;1.40;;;15.70;62.90;;;;;;5050187;28;20033;-72
2023/01/01 06:03:43;;;;;;;6.63;1.65;;;15.60;62.20;;;;;;5078737;28;20112;-72
2023/01/01 06:06:29;;;;;;;4.13;1.48;;;15.60;62.30;;;;;;5024134;28;20416;-73
2023/01/01 06:08:58;;;;;;;4.97;1.35;;;15.70;62.50;;;;;;5035809;28;20033;-72
2023/01/01 06:11:24;;;;;;;4.70;1.42;;;15.60;62.60;;;;;;5031636;28;20052;-72
2023/01/01 06:13:52;;;;;;;4.60;1.33;;;15.60;62.70;;;;;;5044842;28;20469;-73
2023/01/01 06:16:17;;;;;;;4.32;1.52;;;15.60;62.70;;;;;;5045152;28;20446;-73
2023/01/01 06:18:43;;;;;;;4.47;1.58;;;15.60;62.70;;;;;;5048354;28;20112;-73
2023/01/01 06:21:14;;;;;;;6.10;1.60;;;15.50;62.70;;;;;;5052713;28;20116;-72
2023/01/01 06:23:41;;;;;;;6.68;1.50;;;15.50;62.70;;;;;;5025201;28;20036;-73
2023/01/01 06:26:20;;;;;;;6.95;1.77;;;15.50;62.80;;;;;;5042873;28;20029;-72
2023/01/01 06:28:46;;;;;;;6.63;1.77;;;15.50;62.70;;;;;;5036186;28;20039;-73
2023/01/01 06:31:15;;;;;;;3.30;1.02;;;15.50;62.70;;;;;;5039324;28;20064;-73
2023/01/01 06:33:41;;;;;;;6.35;1.42;;;15.50;62.70;;;;;;5038861;28;20060;-72
2023/01/01 06:36:09;;;;;;;6.25;1.92;;;15.50;62.70;;;;;;5031194;28;20064;-72
2023/01/01 06:38:37;;;;;;;5.13;1.50;;;15.50;62.80;;;;;;5028198;28;20037;-73
2023/01/01 06:41:06;;;;;;;3.83;1.35;;;15.40;62.80;;;;;;5046492;28;20100;-73
2023/01/01 06:43:33;;;;;;;4.53;1.30;;;15.40;62.90;;;;;;5036525;28;20022;-72
2023/01/01 06:46:26;;;;;;;3.90;1.35;;;15.40;63.10;;;;;;5046437;28;20036;-72
2023/01/01 06:48:57;;;;;;;3.95;1.30;;;15.40;63.50;;;;;;5043207;28;20032;-72
2023/01/01 06:51:26;;;;;;;5.75;1.30;;;15.40;63.40;;;;;;5054567;28;20033;-71
2023/01/01 06:53:52;;;;;;;3.97;1.40;;;15.30;63.50;;;;;;5051474;28;20032;-71
2023/01/01 06:56:19;;;;;;;6.53;1.73;;;15.30;63.60;;;;;;5045626;28;20025;-71
2023/01/01 06:58:45;;;;;;;5.72;1.42;;;15.30;63.70;;;;;;5046898;28;20025;-71
2023/01/01 07:01:17;;;;;;;10.60;1.85;;;15.30;63.80;;;;;;5055874;28;20036;-71
2023/01/01 07:03:48;;;;;;;4.88;1.30;;;15.30;64.00;;;;;;5030173;28;20346;-71
2023/01/01 07:06:14;;;;;;;5.85;1.33;;;15.20;64.00;;;;;;5055080;28;20035;-71
2023/01/01 07:08:40;;;;;;;5.90;1.70;;;15.20;64.00;;;;;;5048307;28;20386;-71
2023/01/01 07:11:05;;;;;;;5.72;1.17;;;15.20;63.70;;;;;;5048764;28;20342;-71
2023/01/01 07:13:31;;;;;;;4.13;1.10;;;15.20;63.50;;;;;;5042294;28;20025;-71
2023/01/01 07:15:59;;;;;;;5.60;1.20;;;15.10;63.30;;;;;;5044710;28;20495;-71
2023/01/01 07:18:27;;;;;;;3.72;1.13;;;15.10;63.10;;;;;;5043106;28;20097;-72
2023/01/01 07:20:58;;;;;;;3.60;1.02;;;15.10;63.20;;;;;;5041659;28;20036;-72
2023/01/01 07:23:25;;;;;;;4.85;1.27;;;15.10;63.20;;;;;;5043391;28;20036;-71
2023/01/01 07:25:52;;;;;;;2.40;0.70;;;15.00;63.50;;;;;;5048139;28;20024;-72
2023/01/01 07:28:18;;;;;;;4.47;0.82;;;15.00;63.70;;;;;;5032519;28;20144;-72
2023/01/01 07:30:45;;;;;;;4.45;1.25;;;14.90;63.90;;;;;;5040127;28;20361;-71
2023/01/01 07:33:12;;;;;;;4.25;1.10;;;14.90;64.10;;;;;;5029633;28;20091;-70
2023/01/01 07:35:38;;;;;;;3.35;1.00;;;14.90;64.30;;;;;;5050478;28;20063;-69
2023/01/01 07:38:06;;;;;;;3.50;0.80;;;14.80;64.50;;;;;;5027575;28;20024;-69
2023/01/01 07:40:32;;;;;;;3.83;1.00;;;14.80;64.70;;;;;;5034444;28;20105;-70
2023/01/01 07:42:58;;;;;;;3.50;0.80;;;14.70;65.10;;;;;;5034160;28;20041;-71
2023/01/01 07:45:24;;;;;;;3.42;0.98;;;14.70;65.20;;;;;;5033529;28;20022;-70
2023/01/01 07:47:55;;;;;;;4.22;1.08;;;14.70;65.40;;;;;;5038807;28;20020;-70
2023/01/01 07:50:23;;;;;;;5.20;0.95;;;14.70;65.70;;;;;;5051341;28;20476;-70
2023/01/01 07:52:49;;;;;;;3.45;1.10;;;14.60;65.80;;;;;;5045303;28;20032;-70
2023/01/01 07:55:16;;;;;;;2.13;0.80;;;14.60;66.00;;;;;;5044810;28;20104;-70
2023/01/01 07:57:43;;;;;;;6.20;1.20;;;14.50;66.30;;;;;;5045056;28;20446;-70
2023/01/01 08:00:12;;;;;;;3.50;1.02;;;14.50;66.30;;;;;;5030640;28;20021;-71
2023/01/01 08:02:42;;;;;;;4.93;0.93;;;14.50;66.50;;;;;;5030355;28;20028;-70
2023/01/01 08:05:09;;;;;;;5.30;1.08;;;14.50;66.60;;;;;;5025524;28;20026;-71
2023/01/01 08:07:35;;;;;;;5.35;1.20;;;14.40;66.60;;;;;;5051181;28;20029;-73
2023/01/01 08:10:03;;;;;;;3.05;0.75;;;14.40;66.70;;;;;;5048377;28;20026;-74
2023/01/01 08:12:29;;;;;;;4.53;1.30;;;14.40;66.70;;;;;;5048508;28;20121;-74
2023/01/01 08:14:56;;;;;;;4.60;1.00;;;14.40;66.70;;;;;;5037805;28;20096;-75
2023/01/01 08:17:22;;;;;;;4.43;1.00;;;14.40;66.80;;;;;;5027722;28;20033;-72
2023/01/01 08:19:51;;;;;;;4.10;1.20;;;14.40;66.70;;;;;;5046819;28;20040;-73
2023/01/01 08:22:19;;;;;;;4.43;1.05;;;14.40;66.70;;;;;;5022427;28;20036;-73
2023/01/01 08:24:46;;;;;;;3.63;1.02;;;14.40;67.40;;;;;;5020489;28;20033;-72
2023/01/01 08:27:14;;;;;;;5.03;1.23;;;14.40;66.80;;;;;;5031045;28;20060;-73
2023/01/01 08:29:39;;;;;;;6.05;1.17;;;14.40;66.80;;;;;;5041700;28;20040;-73
2023/01/01 08:32:05;;;;;;;4.45;1.00;;;14.40;66.80;;;;;;5022269;28;20021;-73
2023/01/01 08:34:31;;;;;;;6.18;1.20;;;14.40;66.80;;;;;;5037102;28;20025;-73
2023/01/01 08:36:58;;;;;;;4.38;1.20;;;14.40;66.80;;;;;;5053985;28;20021;-73
2023/01/01 08:39:24;;;;;;;6.35;1.40;;;14.40;66.70;;;;;;5037099;28;20035;-73
2023/01/01 08:41:50;;;;;;;7.35;1.42;;;14.40;66.70;;;;;;5037643;28;20369;-73
2023/01/01 08:44:15;;;;;;;6.57;1.27;;;14.40;66.70;;;;;;5046097;28;20025;-73
2023/01/01 08:46:41;;;;;;;5.75;1.38;;;14.40;66.60;;;;;;5026220;28;20044;-73
2023/01/01 08:49:07;;;;;;;4.57;1.25;;;14.40;66.60;;;;;;5021382;28;20115;-73
2023/01/01 08:51:32;;;;;;;4.22;0.90;;;14.40;67.20;;;;;;5037026;28;20029;-73
2023/01/01 08:53:58;;;;;;;5.25;1.20;;;14.40;66.60;;;;;;5054216;28;20021;-73
2023/01/01 08:56:24;;;;;;;3.72;1.10;;;14.30;66.50;;;;;;5053900;28;20461;-73
2023/01/01 08:58:50;;;;;;;6.57;1.20;;;14.40;66.60;;;;;;5037359;28;20051;-73
2023/01/01 09:01:16;;;;;;;6.03;1.20;;;14.40;66.60;;;;;;5054818;28;20414;-73
2023/01/01 09:03:42;;;;;;;4.90;1.10;;;14.30;66.60;;;;;;5023161;28;20053;-72
2023/01/01 09:06:08;;;;;;;5.30;1.42;;;14.40;66.70;;;;;;5050186;28;20032;-72
2023/01/01 09:08:37;;;;;;;5.43;1.25;;;14.30;66.70;;;;;;5036734;28;20450;-73
2023/01/01 09:11:03;;;;;;;7.07;1.20;;;14.40;66.80;;;;;;5053387;28;20063;-72
2023/01/01 09:13:29;;;;;;;6.68;1.52;;;14.30;66.90;;;;;;5036771;28;20064;-73
2023/01/01 09:15:55;;;;;;;5.47;1.23;;;14.40;67.00;;;;;;5053202;28;20037;-73
2023/01/01 09:18:21;;;;;;;6.47;1.38;;;14.30;67.10;;;;;;5040911;28;20025;-73
2023/01/01 09:20:48;;;;;;;6.55;1.40;;;14.40;67.30;;;;;;5052805;28;20032;-73
2023/01/01 09:23:13;;;;;;;4.82;1.10;;;14.40;67.40;;;;;;5053924;28;20029;-73
2023/01/01 09:25:39;;;;;;;6.53;1.27;;;14.40;67.50;;;;;;5036529;28;20062;-73
2023/01/01 09:28:07;;;;;;;6.05;1.30;;;14.40;67.60;;;;;;5052924;28;20057;-73
2023/01/01 09:30:36;;;;;;;6.45;1.60;;;14.40;67.70;;;;;;5054174;28;20576;-72
2023/01/01 09:33:02;;;;;;;4.05;1.15;;;14.40;67.80;;;;;;5052920;28;20051;-73
2023/01/01 09:35:29;;;;;;;4.50;1.40;;;14.50;67.90;;;;;;5040928;28;20480;-73
2023/01/01 09:37:55;;;;;;;4.78;1.38;;;14.40;68.00;;;;;;5039816;28;20572;-72
2023/01/01 09:41:03;;;;;;;5.25;1.60;;;14.50;68.20;;;;;;5056746;28;20056;-73
2023/01/01 09:43:45;;;;;;;7.15;1.17;;;14.40;68.30;;;;;;5040324;28;20057;-72
2023/01/01 09:46:11;;;;;;;6.28;1.80;;;14.40;68.50;;;;;;5056913;28;20454;-72
2023/01/01 09:48:51;;;;;;;4.60;1.40;;;14.40;69.30;;;;;;5040516;28;20072;-73
2023/01/01 09:51:20;;;;;;;9.43;1.80;;;14.40;68.80;;;;;;5051605;28;20055;-72
2023/01/01 09:54:23;;;;;;;8.32;1.75;;;14.40;68.90;;;;;;5044910;28;20416;-72
2023/01/01 09:56:54;;;;;;;6.78;1.45;;;14.40;69.00;;;;;;5056244;28;20047;-73
2023/01/01 09:59:20;;;;;;;5.30;1.50;;;14.40;69.10;;;;;;5056173;28;20048;-73
2023/01/01 10:02:06;;;;;;;7.05;1.80;;;14.40;69.10;;;;;;5025445;28;20355;-73
2023/01/01 10:04:43;;;;;;;5.78;1.23;;;14.40;69.20;;;;;;5051760;28;20099;-73
2023/01/01 10:07:31;;;;;;;5.85;1.27;;;14.40;69.30;;;;;;5057514;28;20029;-73
2023/01/01 10:10:09;;;;;;;7.55;1.83;;;14.40;69.40;;;;;;5033028;28;20029;-73
2023/01/01 10:12:41;;;;;;;6.47;1.60;;;14.50;69.60;;;;;;5048657;28;20039;-73
2023/01/01 10:15:19;;;;;;;5.30;1.38;;;14.40;69.60;;;;;;5090157;28;20108;-73
2023/01/01 10:17:49;;;;;;;8.50;1.67;;;14.40;69.70;;;;;;5059086;28;20021;-72
2023/01/01 10:20:27;;;;;;;7.20;1.70;;;14.50;69.90;;;;;;5031459;28;20357;-71
2023/01/01 10:23:13;;;;;;;6.10;1.60;;;14.40;70.10;;;;;;5059677;28;20029;-72
2023/01/01 10:25:40;;;;;;;5.95;1.80;;;14.40;70.30;;;;;;5055602;28;20054;-73
2023/01/01 10:28:35;;;;;;;7.47;1.60;;;14.40;70.60;;;;;;5070259;28;20057;-72
2023/01/01 10:31:15;;;;;;;5.95;1.35;;;14.40;71.00;;;;;;5055838;28;20382;-73
2023/01/01 10:33:41;;;;;;;6.38;1.80;;;14.40;71.60;;;;;;5056882;28;20025;-73
2023/01/01 10:36:13;;;;;;;6.50;1.60;;;14.30;71.70;;;;;;5057057;28;20021;-73
2023/01/01 10:38:38;;;;;;;;;;;14.30;72.10;;;;;;5039771;28;20178;-73
2023/01/01 10:41:11;;;;;;;6.03;1.35;;;14.30;72.10;;;;;;5056693;28;19951;-73
2023/01/01 10:43:37;;;;;;;5.28;1.52;;;14.20;72.30;;;;;;5042614;28;20029;-73
2023/01/01 10:46:04;;;;;;;3.35;1.40;;;14.20;72.40;;;;;;5036650;28;20029;-73
2023/01/01 10:48:34;;;;;;;6.65;1.38;;;14.20;72.70;;;;;;5045511;28;20075;-73
2023/01/01 10:51:04;;;;;;;6.68;1.55;;;14.20;73.00;;;;;;5055608;28;20029;-72
2023/01/01 10:53:37;;;;;;;6.00;1.23;;;14.20;73.10;;;;;;5056775;28;20028;-73
2023/01/01 10:56:15;;;;;;;6.80;1.63;;;14.20;73.20;;;;;;5054362;28;20025;-73
2023/01/01 10:58:55;;;;;;;4.43;1.17;;;14.20;73.30;;;;;;5045799;28;20421;-73
2023/01/01 11:01:25;;;;;;;5.32;1.50;;;14.10;74.10;;;;;;5071962;28;20049;-74
2023/01/01 11:03:55;;;;;;;6.63;1.58;;;14.10;73.50;;;;;;5055485;28;20081;-74
2023/01/01 11:06:22;;;;;;;5.15;1.45;;;14.10;73.70;;;;;;5056250;28;20025;-73
2023/01/01 11:08:51;;;;;;;6.78;1.65;;;14.10;73.80;;;;;;5055045;28;20144;-73
2023/01/01 11:11:45;;;;;;;3.67;1.15;;;14.00;74.00;;;;;;5050332;28;20021;-73
2023/01/01 11:14:25;;;;;;;8.07;1.40;;;14.10;74.20;;;;;;5033973;28;20048;-73
2023/01/01 11:16:52;;;;;;;8.48;2.08;;;14.00;74.20;;;;;;5057424;28;20025;-74
2023/01/01 11:19:31;;;;;;;7.72;1.58;;;14.10;74.30;;;;;;5038536;28;20436;-73
2023/01/01 11:21:57;;;;;;;10.93;1.70;;;14.10;74.40;;;;;;5056047;28;20029;-73
2023/01/01 11:24:34;;;;;;;5.38;1.52;;;14.10;74.40;;;;;;5055339;28;20366;-73
2023/01/01 11:27:16;;;;;;;6.25;1.95;;;14.10;74.40;;;;;;5052073;28;20063;-73
2023/01/01 11:29:42;;;;;;;6.80;1.73;;;14.10;74.40;;;;;;5065301;28;20033;-73
2023/01/01 11:32:08;;;;;;;5.90;1.65;;;14.20;74.40;;;;;;5054631;28;20090;-73
2023/01/01 11:34:38;;;;;;;6.75;1.90;;;14.10;74.40;;;;;;5055102;28;20032;-73
2023/01/01 11:37:13;;;;;;;7.38;1.83;;;14.10;74.60;;;;;;5054772;28;20507;-73
2023/01/01 11:39:42;;;;;;;7.38;1.83;;;14.20;74.70;;;;;;5055103;28;20047;-73
2023/01/01 11:42:15;;;;;;;5.72;1.98;;;14.20;74.60;;;;;;5048061;28;20056;-73
2023/01/01 11:44:44;;;;;;;7.50;2.00;;;14.30;74.70;;;;;;5055752;28;20442;-73
2023/01/01 11:47:34;;;;;;;7.30;2.38;;;14.30;74.70;;;;;;5037588;28;20029;-73
2023/01/01 11:50:15;;;;;;;7.70;2.15;;;14.40;74.70;;;;;;5038002;28;20457;-73
2023/01/01 11:52:47;;;;;;;6.45;2.30;;;14.40;74.70;;;;;;5054230;28;20108;-73
2023/01/01 11:55:15;;;;;;;;;;;14.40;74.80;;;;;;5054737;28;20138;-74
2023/01/01 11:58:03;;;;;;;8.25;2.67;;;14.40;74.70;;;;;;5037682;28;19960;-73
2023/01/01 12:00:33;;;;;;;6.88;2.63;;;14.40;74.80;;;;;;5061381;28;20087;-73
2023/01/01 12:03:08;;;;;;;8.10;2.25;;;14.40;75.00;;;;;;5037572;28;20029;-73
2023/01/01 12:05:34;;;;;;;7.25;2.67;;;14.40;75.10;;;;;;5054743;28;20035;-73
2023/01/01 12:08:05;;;;;;;8.13;2.88;;;14.40;75.10;;;;;;5041138;28;20116;-73
2023/01/01 12:10:43;;;;;;;10.63;2.92;;;14.40;75.30;;;;;;5038237;28;20047;-73
2023/01/01 12:13:20;;;;;;;8.45;2.97;;;14.40;75.30;;;;;;5037434;28;20025;-73
2023/01/01 12:16:12;;;;;;;7.85;2.45;;;14.50;75.40;;;;;;5062083;28;20037;-73
2023/01/01 12:18:50;;;;;;;6.88;2.45;;;14.40;75.50;;;;;;5068365;28;20047;-73
2023/01/01 12:21:27;;;;;;;9.32;2.83;;;14.50;75.50;;;;;;5054098;28;20446;-73
2023/01/01 12:23:53;;;;;;;9.75;2.50;;;14.50;75.40;;;;;;5054018;28;20055;-73
2023/01/01 12:27:00;;;;;;;8.00;2.83;;;14.60;75.40;;;;;;5052312;28;20350;-73
2023/01/01 12:29:46;;;;;;;10.70;2.90;;;14.60;75.40;;;;;;5042208;28;20041;-73
2023/01/01 12:33:02;;;;;;;8.00;2.50;;;14.60;75.30;;;;;;5040100;28;20362;-74
2023/01/01 12:36:00;;;;;;;8.93;2.63;;;14.60;75.30;;;;;;5069957;28;20029;-75
2023/01/01 12:38:58;;;;;;;7.93;2.90;;;14.70;75.20;;;;;;5052482;28;20098;-73
2023/01/01 12:41:54;;;;;;;8.18;3.30;;;14.70;75.20;;;;;;5032410;28;20225;-74
2023/01/01 12:44:37;;;;;;;7.45;2.70;;;14.80;75.10;;;;;;5032658;28;20528;-73
2023/01/01 12:47:27;;;;;;;8.02;2.55;;;14.80;75.00;;;;;;5032912;28;20054;-73
2023/01/01 12:50:03;;;;;;;12.05;2.70;;;14.80;74.90;;;;;;5053114;28;20056;-73
2023/01/01 12:52:31;;;;;;;11.02;2.88;;;14.90;74.80;;;;;;5055624;28;20335;-73
2023/01/01 12:55:28;;;;;;;9.20;2.95;;;14.90;74.70;;;;;;5070216;28;20102;-72
2023/01/01 12:58:18;;;;;;;9.48;2.60;;;14.90;74.60;;;;;;5070254;28;20056;-73
2023/01/01 13:00:53;;;;;;;8.43;3.05;;;14.90;74.50;;;;;;5032285;28;20417;-73
2023/01/01 13:03:55;;;;;;;11.40;2.80;;;14.90;74.40;;;;;;5033884;28;20041;-73
2023/01/01 13:06:25;;;;;;;;;;;15.00;74.40;;;;;;5027920;28;20037;-73
2023/01/01 13:08:58;;;;;;;8.82;2.35;;;14.90;74.30;;;;;;5058287;28;19909;-72
2023/01/01 13:11:26;;;;;;;9.07;2.40;;;15.00;74.20;;;;;;5036014;28;20048;-72
2023/01/01 13:13:52;;;;;;;7.25;2.35;;;14.90;74.10;;;;;;5041679;28;20096;-73